Fenton, MI

4:45 PM EST on January 25, 2015 (GMT -0500)
Bishop International | Change Station
CLOSE
Current Station
Airport
Location: Flint,
Elevation: 764 ft
Nearby Weather Stations

Elev 764 ft 42.97 °N, 83.75 °W | Updated 52 minutes ago

Mostly Cloudy
Mostly Cloudy
24 °F
Feels Like 11 °F
N
16
Wind Variable Wind from ENE

Today
High -- | Low -- °F
--% Chance of Precip.
Yesterday
High -- | Low -- °F
Precip. -- in
7:56 AM 5:38 PM
Waxing Crescent, 36% visible
Pressure 29.97 in
Visibility 10.0 miles
Clouds Few 2500 ft
Windchill 11 °F
Dew Point 10 °F
Humidity 55%
Rainfall 0.00 in
Snow Depth Not available.
UV 1 out of 12
Pollen .10 out of 12
Air Quality Not available.
Flu Activity Not available.
METAR KFNT 252053Z 06014KT 10SM FEW025 M04/M12 A2994 RMK AO2 SLP148 T10441122 53004

More Conditions Fewer Conditions

Pressure 29.97 in
Visibility 10.0 miles
Clouds Few 2500 ft
Windchill 11 °F
Dew Point 10 °F
Humidity 55%
Rainfall 0.00 in
Snow Depth Not available.
UV 1 out of 12
Pollen .10 out of 12
Air Quality Not available.
Flu Activity Not available.
METAR KFNT 252053Z 06014KT 10SM FEW025 M04/M12 A2994 RMK AO2 SLP148 T10441122 53004

More Conditions Fewer Conditions

10-Day Weather Forecast

Almanac

Astronomy

Jan. 25, 2015 Rise Set
Actual Time
Civil Twilight
Nautical Twilight
Astronomical Twilight
Moon
Length of Visible Light
Length of Day
Tomorrow will be .
, % of the Moon is Illuminated

Today's Extremes

State Highs State Lows

Community

WunderPhotos

Upload Photos

1,790,059 photos uploaded!

WunderBlogs® & News

Nearby

Air Quality

  Air Quality AQ Index Pollutant
Not available.

Snow Depth

Station Depth Elevation

Earthquake Activity

City Distance Mag. Time & Date
Minimum magnitude displayed is 2.5.

Coastal Water Temperatures

Place Temperature

Nearby Weather Stations